Time;durP1;ratioP1;P1;durP2;ratioP2;P2;SDS_P1;SDS_P2;PMS_P1;PMS_P2;Temp;Humidity;BMP_temperature;BMP_pressure;BME280_temperature;BME280_humidity;BME280_pressure;Samples;Min_cycle;Max_cycle;Signal;HPM_P1;HPM_P2
2022/06/16 00:02:00;;;;;;;;;;;;;;;23.17;45.26;101196.16;5030015;28;4312;-65
2022/06/16 00:04:26;;;;;;;;;;;;;;;23.16;44.99;101203.34;5035118;28;4062;-66
2022/06/16 00:06:55;;;;;;;;;;;;;;;23.15;45.02;101198.94;5029748;28;4111;-65
2022/06/16 00:09:24;;;;;;;;;;;;;;;23.15;44.82;101193.16;5035408;28;4165;-65
2022/06/16 00:11:50;;;;;;;;;;;;;;;23.14;45.19;101204.00;5032723;28;5174;-65
2022/06/16 00:14:17;;;;;;;;;;;;;;;23.12;44.88;101188.72;5036309;28;5335;-65
2022/06/16 00:16:43;;;;;;;;;;;;;;;23.13;45.12;101195.97;5033610;28;4202;-65
2022/06/16 00:19:10;;;;;;;;;;;;;;;23.12;45.00;101200.28;5033246;28;4218;-66
2022/06/16 00:21:36;;;;;;;;;;;;;;;23.12;45.05;101188.72;5032396;28;4125;-65
2022/06/16 00:24:02;;;;;;;;;;;;;;;23.12;44.98;101191.63;5034220;28;4197;-65
2022/06/16 00:26:29;;;;;;;;;;;;;;;23.12;44.98;101191.63;5035972;28;4143;-65
2022/06/16 00:28:55;;;;;;;;;;;;;;;23.11;45.07;101188.00;5034708;28;4349;-65
2022/06/16 00:31:26;;;;;;;;;;;;;;;23.12;44.99;101183.69;5034899;28;5221;-65
2022/06/16 00:33:52;;;;;;;;;;;;;;;23.11;44.99;101187.22;5032637;28;5230;-65
2022/06/16 00:36:19;;;;;;;;;;;;;;;23.10;44.73;101191.53;5033516;28;4170;-66
2022/06/16 00:38:45;;;;;;;;;;;;;;;23.08;44.91;101189.28;5033688;28;4208;-65
2022/06/16 00:41:12;;;;;;;;;;;;;;;23.08;45.22;101182.78;5035850;28;4286;-65
2022/06/16 00:43:39;;;;;;;;;;;;;;;23.08;44.90;101177.00;5032886;28;4367;-65
2022/06/16 00:46:06;;;;;;;;;;;;;;;23.08;45.20;101183.50;5034001;28;4183;-65
2022/06/16 00:48:52;;;;;;;;;;;;;;;23.07;45.22;101182.03;5050019;28;4249;-64
2022/06/16 00:51:31;;;;;;;;;;;;;;;23.04;45.04;101180.47;5016148;28;4171;-64
2022/06/16 00:54:02;;;;;;;;;;;;;;;23.06;44.82;101174.03;5047073;28;5333;-64
2022/06/16 00:56:29;;;;;;;;;;;;;;;23.06;44.83;101174.03;5033491;28;4280;-64
2022/06/16 00:58:57;;;;;;;;;;;;;;;23.07;44.94;101172.66;5036655;28;4309;-64
2022/06/16 01:01:23;;;;;;;;;;;;;;;23.07;45.05;101182.03;5034916;28;5433;-64
2022/06/16 01:06:34;;;;;;;;;;;;;;;23.05;44.76;101175.44;5038916;28;4120;-64
2022/06/16 01:09:02;;;;;;;;;;;;;;;23.04;44.84;101182.59;5036883;28;4213;-64
2022/06/16 01:14:19;;;;;;;;;;;;;;;23.05;44.84;101184.13;5038245;28;4215;-66
2022/06/16 01:16:46;;;;;;;;;;;;;;;23.05;45.10;101179.06;5035492;28;4206;-66
2022/06/16 01:19:20;;;;;;;;;;;;;;;23.06;45.07;101179.81;5059476;28;4248;-66
2022/06/16 01:21:52;;;;;;;;;;;;;;;23.06;44.88;101174.03;5044265;28;4311;-66
2022/06/16 01:24:26;;;;;;;;;;;;;;;23.05;44.75;101169.66;5052461;28;4334;-66
2022/06/16 01:26:56;;;;;;;;;;;;;;;23.04;44.91;101185.50;5051326;28;4323;-66
2022/06/16 01:29:22;;;;;;;;;;;;;;;23.04;44.81;101177.56;5035165;28;4153;-66
2022/06/16 01:32:05;;;;;;;;;;;;;;;23.05;44.79;101175.44;5051292;28;5389;-66
2022/06/16 01:34:47;;;;;;;;;;;;;;;23.03;44.81;101169.59;5055376;28;4158;-66
2022/06/16 01:37:32;;;;;;;;;;;;;;;23.03;45.04;101175.34;5057907;28;4157;-66
2022/06/16 01:40:01;;;;;;;;;;;;;;;23.00;45.17;101172.38;5058602;28;4184;-66
2022/06/16 01:42:30;;;;;;;;;;;;;;;23.02;44.78;101162.31;5051886;28;4211;-66
2022/06/16 01:45:11;;;;;;;;;;;;;;;23.03;44.79;101166.69;5045672;28;4175;-66
2022/06/16 01:47:38;;;;;;;;;;;;;;;23.00;45.08;101163.00;5039408;28;4148;-66
2022/06/16 01:50:06;;;;;;;;;;;;;;;22.99;44.78;101165.13;5041716;28;4226;-64
2022/06/16 01:52:34;;;;;;;;;;;;;;;23.00;45.17;101160.09;5043554;28;4205;-64
2022/06/16 01:55:02;;;;;;;;;;;;;;;22.99;44.96;101170.88;5055264;28;4263;-64
2022/06/16 01:57:36;;;;;;;;;;;;;;;23.00;44.94;101163.72;5045975;28;4043;-64
2022/06/16 02:00:05;;;;;;;;;;;;;;;22.99;44.96;101159.34;5043443;28;5201;-64
2022/06/16 02:02:33;;;;;;;;;;;;;;;23.00;44.94;101169.50;5053261;28;4202;-64
2022/06/16 02:05:08;;;;;;;;;;;;;;;22.99;45.14;101170.88;5048082;28;4194;-64
2022/06/16 02:07:46;;;;;;;;;;;;;;;23.00;45.17;101171.66;5061297;28;4048;-64
2022/06/16 02:10:14;;;;;;;;;;;;;;;22.98;44.92;101171.53;5044156;28;4105;-66
2022/06/16 02:12:55;;;;;;;;;;;;;;;22.97;45.06;101167.88;5054107;28;5426;-66
2022/06/16 02:15:42;;;;;;;;;;;;;;;22.98;45.03;101169.38;5046067;28;4304;-66
2022/06/16 02:18:09;;;;;;;;;;;;;;;22.97;45.16;101167.88;5053633;28;4404;-66
2022/06/16 02:20:42;;;;;;;;;;;;;;;22.96;44.94;101169.31;5053272;28;4233;-66
2022/06/16 02:23:08;;;;;;;;;;;;;;;22.96;45.14;101160.63;5054639;28;4179;-66
2022/06/16 02:25:34;;;;;;;;;;;;;;;22.98;44.95;101162.88;5059498;28;4269;-66
2022/06/16 02:28:01;;;;;;;;;;;;;;;22.98;45.20;101159.97;5056846;28;4211;-66
2022/06/16 02:30:28;;;;;;;;;;;;;;;22.98;45.19;101151.31;5057469;28;4191;-66
2022/06/16 02:32:58;;;;;;;;;;;;;;;22.97;45.36;101147.66;5054319;28;4236;-66
2022/06/16 02:35:36;;;;;;;;;;;;;;;22.95;45.33;101159.16;5051847;28;5210;-66
2022/06/16 02:38:12;;;;;;;;;;;;;;;22.96;45.37;101154.88;5058936;28;4226;-65
2022/06/16 02:40:42;;;;;;;;;;;;;;;22.95;45.33;101159.16;5040634;28;4206;-66
2022/06/16 02:43:27;;;;;;;;;;;;;;;22.96;45.19;101166.41;5055201;28;4603;-66
2022/06/16 02:46:04;;;;;;;;;;;;;;;22.94;45.24;101148.25;5053180;28;4206;-66
2022/06/16 02:48:42;;;;;;;;;;;;;;;22.94;45.23;101143.22;5041050;28;7156;-66
2022/06/16 02:51:18;;;;;;;;;;;;;;;22.94;45.34;101140.34;5055459;28;4243;-66
2022/06/16 02:53:58;;;;;;;;;;;;;;;22.93;45.24;101141.00;5038829;28;4062;-66
2022/06/16 02:56:44;;;;;;;;;;;;;;;22.92;45.33;101146.03;5045244;28;6026;-66
2022/06/16 02:59:16;;;;;;;;;;;;;;;22.92;45.20;101148.19;5054102;28;4208;-65
2022/06/16 03:01:43;;;;;;;;;;;;;;;22.93;45.47;101143.88;5053877;28;4555;-66
2022/06/16 03:04:11;;;;;;;;;;;;;;;22.92;45.47;101148.91;5050242;28;5375;-66
2022/06/16 03:06:41;;;;;;;;;;;;;;;22.92;45.43;101148.91;5056108;28;4163;-65
2022/06/16 03:09:08;;;;;;;;;;;;;;;22.91;45.30;101144.56;5050410;28;4339;-66
2022/06/16 03:11:35;;;;;;;;;;;;;;;22.90;45.51;101151.72;5072194;28;4225;-66
2022/06/16 03:14:03;;;;;;;;;;;;;;;22.91;45.70;101155.38;5060985;28;4218;-66
2022/06/16 03:16:36;;;;;;;;;;;;;;;22.91;45.50;101161.16;5043919;28;4163;-66
2022/06/16 03:19:02;;;;;;;;;;;;;;;22.91;45.55;101161.16;5069734;28;4196;-66
2022/06/16 03:21:30;;;;;;;;;;;;;;;22.92;45.68;101159.72;5056142;28;4866;-66
2022/06/16 03:23:56;;;;;;;;;;;;;;;22.91;45.53;101159.00;5053762;28;4319;-66
2022/06/16 03:26:24;;;;;;;;;;;;;;;22.90;45.71;101148.84;5056973;28;4209;-65
2022/06/16 03:28:54;;;;;;;;;;;;;;;22.90;45.59;101150.97;5052313;28;4196;-66
2022/06/16 03:31:20;;;;;;;;;;;;;;;22.89;45.89;101156.03;5057236;28;4234;-66
2022/06/16 03:33:50;;;;;;;;;;;;;;;22.90;45.79;101153.88;5053567;28;5515;-66
2022/06/16 03:36:16;;;;;;;;;;;;;;;22.89;45.65;101150.25;5056369;28;5247;-66
2022/06/16 03:38:44;;;;;;;;;;;;;;;22.89;45.98;101150.25;5054832;28;4402;-66
2022/06/16 03:41:13;;;;;;;;;;;;;;;22.88;45.87;101153.78;5056556;28;4209;-66
2022/06/16 03:43:41;;;;;;;;;;;;;;;22.87;46.03;101153.06;5058308;28;4053;-66
2022/06/16 03:46:14;;;;;;;;;;;;;;;22.87;45.99;101155.94;5053931;28;4027;-66
2022/06/16 03:48:44;;;;;;;;;;;;;;;22.87;45.99;101153.06;5059759;28;4109;-66
2022/06/16 03:51:14;;;;;;;;;;;;;;;22.87;45.97;101158.81;5057981;28;6511;-66
2022/06/16 03:53:40;;;;;;;;;;;;;;;22.88;45.89;101153.78;5054019;28;4144;-65
2022/06/16 03:56:07;;;;;;;;;;;;;;;22.87;45.99;101164.59;5050278;28;4242;-66
2022/06/16 03:58:33;;;;;;;;;;;;;;;22.87;45.82;101158.09;5053489;28;5606;-65
2022/06/16 04:01:01;;;;;;;;;;;;;;;22.84;45.80;101157.28;5053193;28;4155;-66
2022/06/16 04:06:14;;;;;;;;;;;;;;;22.84;46.07;101147.84;5055452;28;4200;-66
2022/06/16 04:08:45;;;;;;;;;;;;;;;22.85;45.79;101149.34;5060336;28;4188;-66
2022/06/16 04:11:26;;;;;;;;;;;;;;;22.82;45.93;101151.41;5050457;28;4164;-65
2022/06/16 04:13:53;;;;;;;;;;;;;;;22.83;46.14;101161.53;5053762;28;4246;-65
2022/06/16 04:16:20;;;;;;;;;;;;;;;22.83;45.96;101158.66;5053171;28;4223;-65
2022/06/16 04:18:46;;;;;;;;;;;;;;;22.80;46.07;101154.22;5055412;28;4054;-65
2022/06/16 04:21:13;;;;;;;;;;;;;;;22.80;46.01;101165.75;5066267;28;5438;-65
2022/06/16 04:23:59;;;;;;;;;;;;;;;22.81;45.86;101161.44;5054432;28;4414;-65
2022/06/16 04:26:26;;;;;;;;;;;;;;;22.81;45.84;101161.44;5052906;28;4194;-66
2022/06/16 04:28:53;;;;;;;;;;;;;;;22.81;46.20;101164.34;5058721;28;4195;-65
2022/06/16 04:31:21;;;;;;;;;;;;;;;22.80;46.41;101166.50;5060251;28;4185;-65
2022/06/16 04:33:48;;;;;;;;;;;;;;;22.76;46.26;101159.81;5054589;28;5324;-65
2022/06/16 04:36:14;;;;;;;;;;;;;;;22.77;46.28;101173.59;5045156;28;4220;-65
2022/06/16 04:38:50;;;;;;;;;;;;;;;22.77;46.46;101164.19;5053099;28;4060;-65
2022/06/16 04:41:19;;;;;;;;;;;;;;;22.75;46.19;101164.09;5053860;28;4173;-64
2022/06/16 04:43:47;;;;;;;;;;;;;;;22.74;46.45;101168.38;5055719;28;4123;-66
2022/06/16 04:46:13;;;;;;;;;;;;;;;22.76;46.49;101171.34;5054890;28;5437;-65
2022/06/16 04:48:43;;;;;;;;;;;;;;;22.78;46.15;101174.31;5042625;28;5490;-65
2022/06/16 04:51:14;;;;;;;;;;;;;;;22.75;46.24;101169.88;5060817;28;4388;-65
2022/06/16 04:53:44;;;;;;;;;;;;;;;22.70;46.45;101168.97;5057055;28;5221;-64
2022/06/16 04:56:16;;;;;;;;;;;;;;;22.68;46.29;101168.16;5054295;28;4164;-65
2022/06/16 04:58:51;;;;;;;;;;;;;;;22.71;46.00;101169.72;5072144;28;4028;-65
2022/06/16 05:01:33;;;;;;;;;;;;;;;22.68;46.32;101174.66;5048044;28;4234;-65
2022/06/16 05:04:16;;;;;;;;;;;;;;;22.18;47.02;101186.22;5058234;28;4241;-69
2022/06/16 05:07:02;;;;;;;;;;;;;;;21.56;48.20;101179.09;5052859;28;5293;-69
2022/06/16 05:09:38;;;;;;;;;;;;;;;21.44;48.43;101176.41;5051426;28;4282;-68
2022/06/16 05:12:23;;;;;;;;;;;;;;;21.42;48.97;101178.44;5054332;28;4008;-67
2022/06/16 05:15:05;;;;;;;;;;;;;;;21.44;49.71;101187.16;5055363;28;5470;-65
2022/06/16 05:17:43;;;;;;;;;;;;;;;21.13;49.96;101182.81;5052863;28;5142;-65
2022/06/16 05:20:36;;;;;;;;;;;;;;;21.28;49.64;101182.09;5019908;28;4181;-66
2022/06/16 05:23:21;;;;;;;;;;;;;;;21.31;49.82;101189.44;5054696;28;5311;-68
2022/06/16 05:25:57;;;;;;;;;;;;;;;21.10;50.32;101202.13;5054766;28;4211;-70
2022/06/16 05:28:42;;;;;;;;;;;;;;;21.18;49.84;101192.38;5051796;28;5213;-70
2022/06/16 05:31:28;;;;;;;;;;;;;;;21.08;50.12;101192.66;5059276;28;4161;-70
2022/06/16 05:34:17;;;;;;;;;;;;;;;21.13;49.94;101194.31;5066272;28;4322;-70
2022/06/16 05:37:02;;;;;;;;;;;;;;;21.46;49.31;101184.38;5059309;28;5260;-70
2022/06/16 05:39:33;;;;;;;;;;;;;;;21.43;49.38;101192.19;5056603;28;4215;-70
2022/06/16 05:42:20;;;;;;;;;;;;;;;21.37;49.46;101194.00;5055234;28;5275;-70
2022/06/16 05:44:55;;;;;;;;;;;;;;;21.29;49.85;101183.56;5058245;28;5316;-70
2022/06/16 05:47:47;;;;;;;;;;;;;;;21.28;49.74;101189.97;5061080;28;5404;-73
2022/06/16 05:50:14;;;;;;;;;;;;;;;20.85;50.37;101200.19;5056407;28;5249;-73
2022/06/16 05:52:41;;;;;;;;;;;;;;;21.21;49.79;101203.38;5053785;28;4073;-74
2022/06/16 05:55:18;;;;;;;;;;;;;;;21.40;49.21;101196.38;5061848;28;4292;-73
2022/06/16 05:57:45;;;;;;;;;;;;;;;21.21;49.77;101212.00;5057600;28;4247;-74
2022/06/16 06:00:13;;;;;;;;;;;;;;;21.23;49.61;101203.44;5056267;28;4211;-73
2022/06/16 06:02:55;;;;;;;;;;;;;;;21.32;49.42;101199.56;5056100;28;5494;-74
2022/06/16 06:05:22;;;;;;;;;;;;;;;21.28;49.61;101205.16;5055845;28;5392;-73
2022/06/16 06:16:26;;;;;;;;;;;;;;;21.62;49.26;101219.72;5056870;28;4176;-70
2022/06/16 06:18:53;;;;;;;;;;;;;;;21.52;49.11;101227.88;5054937;28;4138;-72
2022/06/16 06:21:58;;;;;;;;;;;;;;;21.82;48.99;101228.56;5061113;28;4150;-71
2022/06/16 06:24:08;;;;;;;;;;;;;;;21.93;48.28;101229.78;5054751;28;4207;-74
2022/06/16 06:26:34;;;;;;;;;;;;;;;21.96;48.00;101222.69;5055183;28;4172;-73
2022/06/16 06:29:01;;;;;;;;;;;;;;;21.43;49.29;101226.00;5033725;28;4206;-70
2022/06/16 06:31:27;;;;;;;;;;;;;;;21.91;48.67;101233.31;5056649;28;4233;-70
2022/06/16 06:33:54;;;;;;;;;;;;;;;21.82;48.06;101219.19;5054405;28;4205;-70
2022/06/16 06:36:20;;;;;;;;;;;;;;;21.74;48.27;101214.53;5047404;28;5426;-70
2022/06/16 06:38:46;;;;;;;;;;;;;;;21.50;48.94;101216.25;5053485;28;4211;-66
2022/06/16 06:41:13;;;;;;;;;;;;;;;21.63;48.75;101214.72;5049497;28;4246;-69
2022/06/16 06:43:39;;;;;;;;;;;;;;;21.85;48.42;101235.16;5052508;28;4107;-69
2022/06/16 06:46:06;;;;;;;;;;;;;;;21.84;48.51;101236.56;5053738;28;4172;-69
2022/06/16 06:48:33;;;;;;;;;;;;;;;21.87;48.77;101238.13;5044921;28;4268;-67
2022/06/16 06:50:59;;;;;;;;;;;;;;;21.99;48.51;101235.84;5054412;28;4235;-70
2022/06/16 06:53:25;;;;;;;;;;;;;;;22.00;48.37;101248.84;5052559;28;4244;-70
2022/06/16 06:55:52;;;;;;;;;;;;;;;21.98;48.04;101248.00;5051102;28;3997;-68
2022/06/16 06:58:19;;;;;;;;;;;;;;;22.02;47.65;101254.72;5058110;28;4216;-68
2022/06/16 07:00:45;;;;;;;;;;;;;;;22.16;47.84;101249.56;5054630;28;4159;-69
2022/06/16 07:03:11;;;;;;;;;;;;;;;22.06;47.90;101249.13;5053382;28;5308;-69
2022/06/16 07:05:38;;;;;;;;;;;;;;;22.13;47.73;101250.91;5046553;28;4111;-68
2022/06/16 07:08:04;;;;;;;;;;;;;;;22.07;48.28;101256.38;5049153;28;5471;-70
2022/06/16 07:10:31;;;;;;;;;;;;;;;22.13;47.57;101253.78;5052064;28;4250;-67
2022/06/16 07:12:58;;;;;;;;;;;;;;;22.23;47.90;101259.28;5054696;28;4027;-70
2022/06/16 07:15:24;;;;;;;;;;;;;;;22.21;47.57;101264.19;5049195;28;4180;-68
2022/06/16 07:17:51;;;;;;;;;;;;;;;22.26;47.64;101260.13;5057201;28;4545;-67
2022/06/16 07:20:17;;;;;;;;;;;;;;;22.26;47.65;101277.44;5056477;28;4166;-67
2022/06/16 07:22:44;;;;;;;;;;;;;;;22.17;47.18;101288.59;5055839;28;4160;-67
2022/06/16 07:25:10;;;;;;;;;;;;;;;22.27;47.05;101296.25;5052431;28;4188;-68
2022/06/16 07:27:37;;;;;;;;;;;;;;;22.20;47.46;101294.44;5055956;28;4289;-68
2022/06/16 07:30:13;;;;;;;;;;;;;;;22.32;47.51;101283.47;5056407;28;4149;-70
2022/06/16 07:32:40;;;;;;;;;;;;;;;22.20;47.52;101274.25;5047559;28;4254;-67
2022/06/16 07:35:06;;;;;;;;;;;;;;;22.31;47.50;101267.53;5054450;28;5173;-71
2022/06/16 07:37:33;;;;;;;;;;;;;;;22.22;47.21;101263.56;5053859;28;4040;-69
2022/06/16 07:40:00;;;;;;;;;;;;;;;22.37;46.95;101253.41;5053390;28;4209;-67
2022/06/16 07:42:27;;;;;;;;;;;;;;;22.53;47.18;101254.09;5054663;28;4120;-67
2022/06/16 07:44:53;;;;;;;;;;;;;;;22.66;47.12;101257.53;5052800;28;4189;-64
2022/06/16 07:47:20;;;;;;;;;;;;;;;22.49;47.03;101264.72;5055072;28;4255;-64
2022/06/16 07:49:49;;;;;;;;;;;;;;;22.74;46.95;101263.66;5053580;28;3967;-64
2022/06/16 07:52:15;;;;;;;;;;;;;;;22.70;46.62;101272.13;5055033;28;5355;-64
2022/06/16 07:54:42;;;;;;;;;;;;;;;22.67;46.51;101267.69;5052282;28;4483;-61
2022/06/16 07:57:17;;;;;;;;;;;;;;;22.79;46.69;101265.31;5053168;28;4296;-60
2022/06/16 07:59:53;;;;;;;;;;;;;;;22.84;46.46;101275.66;5053577;28;4199;-63
2022/06/16 08:02:19;;;;;;;;;;;;;;;22.70;46.87;101280.78;5050531;28;4179;-63
2022/06/16 08:04:46;;;;;;;;;;;;;;;22.78;46.27;101290.56;5052969;28;4236;-62
2022/06/16 08:07:12;;;;;;;;;;;;;;;22.48;46.57;101284.19;5046940;28;4224;-63
2022/06/16 08:09:39;;;;;;;;;;;;;;;22.51;46.59;101291.53;5050334;28;4210;-62
2022/06/16 08:12:09;;;;;;;;;;;;;;;22.45;46.37;101294.19;5049993;28;4172;-66
2022/06/16 08:14:41;;;;;;;;;;;;;;;22.27;46.51;101284.69;5049040;28;4289;-65
2022/06/16 08:17:10;;;;;;;;;;;;;;;22.31;46.54;101296.41;5051258;28;4516;-65
2022/06/16 08:19:37;;;;;;;;;;;;;;;22.32;46.14;101292.13;5056710;28;4122;-64
2022/06/16 08:22:04;;;;;;;;;;;;;;;22.27;46.12;101278.94;5057621;28;4207;-65
2022/06/16 08:24:31;;;;;;;;;;;;;;;22.15;46.29;101282.72;5058223;28;4263;-65
2022/06/16 08:26:57;;;;;;;;;;;;;;;22.35;45.94;101291.56;5057680;28;4040;-61
2022/06/16 08:29:25;;;;;;;;;;;;;;;22.40;45.96;101292.47;5057673;28;5570;-61
2022/06/16 08:31:51;;;;;;;;;;;;;;;22.23;46.08;101301.81;5055492;28;4138;-61
2022/06/16 08:34:18;;;;;;;;;;;;;;;22.35;45.97;101305.25;5055736;28;5611;-62
2022/06/16 08:36:44;;;;;;;;;;;;;;;22.24;45.79;101309.06;5056229;28;4245;-61
2022/06/16 08:39:10;;;;;;;;;;;;;;;21.98;46.09;101306.41;5053943;28;5217;-61
2022/06/16 08:41:38;;;;;;;;;;;;;;;22.18;45.64;101306.63;5054870;28;4115;-61
2022/06/16 08:44:07;;;;;;;;;;;;;;;22.08;46.09;101312.69;5057708;28;5294;-62
2022/06/16 08:46:52;;;;;;;;;;;;;;;22.08;46.48;101309.78;5055550;28;4267;-62
2022/06/16 08:49:21;;;;;;;;;;;;;;;22.25;46.09;101317.06;5058609;28;4203;-61
2022/06/16 08:51:59;;;;;;;;;;;;;;;22.24;46.08;101323.47;5052367;28;4109;-64
2022/06/16 08:54:33;;;;;;;;;;;;;;;22.28;45.72;101323.69;5064995;28;4238;-63
2022/06/16 08:57:01;;;;;;;;;;;;;;;22.28;45.69;101320.78;5057943;28;4233;-65
2022/06/16 08:59:44;;;;;;;;;;;;;;;22.22;45.67;101334.94;5057436;28;4214;-65
2022/06/16 09:02:17;;;;;;;;;;;;;;;22.37;45.83;101334.94;5053145;28;6628;-61
2022/06/16 09:07:56;;;;;;;;;;;;;;;22.18;45.93;101330.44;5051305;28;5227;-61
2022/06/16 09:10:25;;;;;;;;;;;;;;;22.73;45.79;101331.47;5054254;28;5592;-61
2022/06/16 09:13:11;;;;;;;;;;;;;;;22.87;45.31;101329.19;5056320;28;4209;-63
2022/06/16 09:15:38;;;;;;;;;;;;;;;22.90;45.37;101324.97;5056247;28;5300;-64
2022/06/16 09:18:27;;;;;;;;;;;;;;;22.86;45.27;101336.38;5063479;28;4173;-62
2022/06/16 09:20:57;;;;;;;;;;;;;;;22.87;45.19;101337.84;5059022;28;4151;-64
2022/06/16 09:23:33;;;;;;;;;;;;;;;23.02;44.92;101335.59;5054910;28;3968;-62
2022/06/16 09:26:06;;;;;;;;;;;;;;;23.04;44.76;101338.59;5058337;28;4227;-70
2022/06/16 09:28:51;;;;;;;;;;;;;;;22.95;44.95;101340.34;5063430;28;4209;-65
2022/06/16 09:31:23;;;;;;;;;;;;;;;23.06;44.79;101344.44;5057320;28;4159;-65
2022/06/16 09:33:51;;;;;;;;;;;;;;;23.07;45.02;101340.91;5052279;28;5316;-66
2022/06/16 09:36:27;;;;;;;;;;;;;;;22.94;44.42;101345.38;5058289;28;5208;-64
2022/06/16 09:38:55;;;;;;;;;;;;;;;23.20;44.72;101345.03;5064546;28;4217;-61
2022/06/16 09:44:18;;;;;;;;;;;;;;;23.19;44.25;101355.88;5056219;28;4266;-64
2022/06/16 09:46:48;;;;;;;;;;;;;;;23.10;44.21;101356.19;5055491;28;4201;-63
2022/06/16 09:49:17;;;;;;;;;;;;;;;23.09;43.87;101357.56;5062516;28;6319;-64
2022/06/16 09:52:04;;;;;;;;;;;;;;;23.11;44.13;101360.53;5054927;28;4182;-62
2022/06/16 09:54:32;;;;;;;;;;;;;;;23.16;44.08;101347.78;5061759;28;4246;-61
2022/06/16 09:57:00;;;;;;;;;;;;;;;23.23;43.93;101352.41;5060877;28;3988;-61
2022/06/16 09:59:40;;;;;;;;;;;;;;;23.24;44.02;101351.00;5058046;28;4132;-61
2022/06/16 10:02:12;;;;;;;;;;;;;;;23.19;43.88;101355.13;5054858;28;4214;-61
2022/06/16 10:04:39;;;;;;;;;;;;;;;23.24;43.90;101356.78;5055772;28;4213;-61
2022/06/16 10:07:09;;;;;;;;;;;;;;;23.30;43.69;101354.16;5056102;28;4165;-64
2022/06/16 10:09:45;;;;;;;;;;;;;;;23.10;42.95;101364.84;5055641;28;4182;-64
2022/06/16 10:12:37;;;;;;;;;;;;;;;23.23;43.45;101355.31;5053384;28;5400;-63
2022/06/16 10:15:04;;;;;;;;;;;;;;;23.36;43.02;101360.19;5028763;28;4247;-66
2022/06/16 10:17:31;;;;;;;;;;;;;;;23.34;42.75;101357.22;5057164;28;4204;-62
2022/06/16 10:19:58;;;;;;;;;;;;;;;23.16;43.29;101365.13;5053834;28;5535;-67
2022/06/16 10:22:24;;;;;;;;;;;;;;;23.15;43.49;101360.72;5053223;28;4101;-60
2022/06/16 10:24:54;;;;;;;;;;;;;;;23.41;43.61;101358.97;5053003;28;4163;-69
2022/06/16 10:27:20;;;;;;;;;;;;;;;23.42;43.79;101360.44;5058655;28;4189;-64
2022/06/16 10:29:53;;;;;;;;;;;;;;;23.47;43.74;101363.50;5060469;28;5214;-67
2022/06/16 10:32:20;;;;;;;;;;;;;;;23.53;44.00;101367.41;5055719;28;4050;-66
2022/06/16 10:34:50;;;;;;;;;;;;;;;23.51;43.71;101366.56;5058683;28;5494;-65
2022/06/16 10:37:18;;;;;;;;;;;;;;;23.60;44.12;101369.13;5056381;28;6343;-62
2022/06/16 10:39:48;;;;;;;;;;;;;;;23.57;43.91;101369.69;5057422;28;5563;-65
2022/06/16 10:42:34;;;;;;;;;;;;;;;23.50;44.24;101359.28;5050154;28;5222;-62
2022/06/16 10:45:03;;;;;;;;;;;;;;;23.58;44.01;101371.19;5051945;28;4130;-65
2022/06/16 10:47:49;;;;;;;;;;;;;;;23.62;44.20;101371.38;5050530;28;4188;-61
2022/06/16 10:50:20;;;;;;;;;;;;;;;23.53;44.21;101375.31;5049376;28;4200;-63
2022/06/16 10:52:47;;;;;;;;;;;;;;;23.51;44.30;101383.91;5048258;28;4337;-59
2022/06/16 10:55:15;;;;;;;;;;;;;;;23.62;44.53;101382.94;5055357;28;4228;-61
2022/06/16 10:57:43;;;;;;;;;;;;;;;23.68;44.93;101386.06;5054459;28;4116;-59
2022/06/16 11:00:09;;;;;;;;;;;;;;;23.67;44.51;101401.94;5054389;28;4163;-61
2022/06/16 11:02:35;;;;;;;;;;;;;;;23.64;44.51;101394.59;5048868;28;4329;-61
2022/06/16 11:05:05;;;;;;;;;;;;;;;23.65;44.80;101401.84;5044887;28;5291;-58
2022/06/16 11:07:35;;;;;;;;;;;;;;;23.70;44.83;101391.19;5049751;28;4229;-60
2022/06/16 11:10:12;;;;;;;;;;;;;;;23.82;44.46;101401.13;5048079;28;5284;-60
2022/06/16 11:12:39;;;;;;;;;;;;;;;23.83;44.87;101402.63;5047048;28;4178;-62
2022/06/16 11:15:20;;;;;;;;;;;;;;;23.88;44.73;101409.31;5049879;28;4294;-63
2022/06/16 11:17:47;;;;;;;;;;;;;;;23.62;44.90;101400.28;5051583;28;4009;-61
2022/06/16 11:20:13;;;;;;;;;;;;;;;23.49;44.95;101404.78;5049134;28;4377;-62
2022/06/16 11:22:41;;;;;;;;;;;;;;;23.40;45.52;101403.69;5045187;28;4254;-61
2022/06/16 11:25:28;;;;;;;;;;;;;;;23.37;45.46;101416.59;5044661;28;4199;-61
2022/06/16 11:27:59;;;;;;;;;;;;;;;23.33;45.77;101407.75;5053092;28;4258;-66
2022/06/16 11:30:34;;;;;;;;;;;;;;;23.30;46.11;101417.00;5050037;28;6301;-65
2022/06/16 11:33:01;;;;;;;;;;;;;;;23.29;46.06;101410.44;5049172;28;5016;-65
2022/06/16 11:35:32;;;;;;;;;;;;;;;23.27;46.11;101416.13;5039474;28;4070;-65
2022/06/16 11:38:10;;;;;;;;;;;;;;;23.27;46.25;101412.50;5026556;28;4033;-61
2022/06/16 11:40:39;;;;;;;;;;;;;;;23.30;46.99;101411.94;5026761;28;4161;-70
2022/06/16 11:43:05;;;;;;;;;;;;;;;23.78;46.79;101411.81;5023448;28;5581;-68
2022/06/16 11:45:43;;;;;;;;;;;;;;;23.80;46.12;101403.94;5031837;28;4146;-67
2022/06/16 11:48:28;;;;;;;;;;;;;;;23.78;46.16;101400.97;5029479;28;4138;-68
2022/06/16 11:50:59;;;;;;;;;;;;;;;23.83;46.08;101410.56;5029192;28;4174;-67
2022/06/16 11:53:29;;;;;;;;;;;;;;;23.91;45.91;101413.75;5027089;28;4163;-68
2022/06/16 11:55:57;;;;;;;;;;;;;;;23.94;45.89;101400.88;5061438;28;4359;-69
2022/06/16 11:58:29;;;;;;;;;;;;;;;23.94;45.75;101403.03;5027507;28;5550;-65
2022/06/16 12:00:57;;;;;;;;;;;;;;;24.06;45.99;101406.41;5029939;28;4190;-63
2022/06/16 12:03:37;;;;;;;;;;;;;;;23.95;45.78;101408.16;5027339;28;5294;-64
2022/06/16 12:06:26;;;;;;;;;;;;;;;24.09;46.37;101405.06;5035845;28;4127;-65
2022/06/16 12:09:01;;;;;;;;;;;;;;;24.24;45.81;101404.22;5023305;28;4038;-64
2022/06/16 12:11:30;;;;;;;;;;;;;;;24.13;45.25;101413.19;5026810;28;4165;-64
2022/06/16 12:14:19;;;;;;;;;;;;;;;24.21;45.97;101399.78;5028181;28;4175;-63
2022/06/16 12:16:52;;;;;;;;;;;;;;;24.21;46.00;101399.78;5033713;28;4158;-72
2022/06/16 12:19:40;;;;;;;;;;;;;;;24.15;45.19;101396.66;5025511;28;4144;-74
2022/06/16 12:22:12;;;;;;;;;;;;;;;24.29;45.81;101398.59;5055311;28;4190;-74
2022/06/16 12:24:43;;;;;;;;;;;;;;;24.06;45.39;101400.63;5042437;28;4238;-70
2022/06/16 12:27:18;;;;;;;;;;;;;;;24.19;45.45;101402.59;5053341;28;4214;-73
2022/06/16 12:29:47;;;;;;;;;;;;;;;24.27;45.82;101401.41;5052215;28;4226;-74
2022/06/16 12:32:18;;;;;;;;;;;;;;;24.26;46.14;101406.47;5046098;28;4244;-68
2022/06/16 12:35:03;;;;;;;;;;;;;;;24.16;45.88;101397.38;5041243;28;4015;-69
2022/06/16 12:37:33;;;;;;;;;;;;;;;24.25;45.24;101399.91;5039132;28;4075;-69
2022/06/16 12:40:08;;;;;;;;;;;;;;;24.43;45.16;101402.03;5052800;28;4230;-72
2022/06/16 12:42:46;;;;;;;;;;;;;;;24.20;45.29;101412.00;5044857;28;4200;-68
2022/06/16 12:45:16;;;;;;;;;;;;;;;24.18;45.62;101412.66;5049838;28;4172;-71
2022/06/16 12:47:48;;;;;;;;;;;;;;;24.19;45.19;101401.81;5044167;28;4144;-76
2022/06/16 12:50:22;;;;;;;;;;;;;;;24.25;45.74;101402.06;5047259;28;4203;-68
2022/06/16 12:52:53;;;;;;;;;;;;;;;24.43;44.98;101407.84;5049908;28;4235;-73
2022/06/16 12:55:24;;;;;;;;;;;;;;;24.34;44.94;101406.03;5048009;28;5275;-77
2022/06/16 12:57:58;;;;;;;;;;;;;;;24.24;45.36;101403.50;5054208;28;4229;-71
2022/06/16 13:00:25;;;;;;;;;;;;;;;24.16;45.71;101403.91;5061636;28;4141;-73
2022/06/16 13:02:55;;;;;;;;;;;;;;;24.13;45.83;101416.81;5052901;28;5365;-71
2022/06/16 13:05:22;;;;;;;;;;;;;;;24.17;45.79;101405.41;5052065;28;4146;-71
2022/06/16 13:07:50;;;;;;;;;;;;;;;23.88;46.22;101414.34;5054676;28;4219;-62
2022/06/16 13:10:16;;;;;;;;;;;;;;;23.76;46.31;101408.81;5048605;28;4268;-66
2022/06/16 13:12:44;;;;;;;;;;;;;;;23.87;46.33;101404.19;5045156;28;5304;-70
2022/06/16 13:15:14;;;;;;;;;;;;;;;23.93;46.12;101407.31;5050560;28;4183;-67
2022/06/16 13:17:48;;;;;;;;;;;;;;;23.96;46.12;101420.44;5053196;28;4125;-67
2022/06/16 13:20:15;;;;;;;;;;;;;;;23.96;46.02;101408.88;5048919;28;4596;-69
2022/06/16 13:22:42;;;;;;;;;;;;;;;23.95;46.19;101419.72;5048303;28;4167;-71
2022/06/16 13:25:12;;;;;;;;;;;;;;;23.95;46.08;101424.75;5050495;28;4169;-70
2022/06/16 13:27:39;;;;;;;;;;;;;;;23.96;46.12;101429.13;5055318;28;4230;-74
2022/06/16 13:30:05;;;;;;;;;;;;;;;23.96;46.06;101429.13;5051715;28;5423;-69
2022/06/16 13:32:39;;;;;;;;;;;;;;;23.95;46.14;101427.66;5046268;28;4172;-65